Time;durP1;ratioP1;P1;durP2;ratioP2;P2;SDS_P1;SDS_P2;PMS_P1;PMS_P2;Temp;Humidity;BMP_temperature;BMP_pressure;BME280_temperature;BME280_humidity;BME280_pressure;Samples;Min_cycle;Max_cycle;Signal;HPM_P1;HPM_P2
2023/04/06 03:00:17;;;;;;;11.13;6.90;;;2.60;99.90;;;;;;6199793;22;20053;-75
2023/04/06 03:02:42;;;;;;;13.55;7.47;;;2.60;99.90;;;;;;6219488;23;20043;-78
2023/04/06 03:05:08;;;;;;;12.40;7.35;;;2.50;99.90;;;;;;6219927;23;20043;-76
2023/04/06 03:07:34;;;;;;;12.10;7.40;;;2.50;99.90;;;;;;6246543;23;20096;-77
2023/04/06 03:09:59;;;;;;;10.82;6.88;;;2.50;99.90;;;;;;6219345;23;20031;-76
2023/04/06 03:12:25;;;;;;;12.30;7.60;;;2.50;99.90;;;;;;6219186;23;20016;-78
2023/04/06 03:14:51;;;;;;;14.30;7.55;;;2.50;99.90;;;;;;6220042;23;20023;-77
2023/04/06 03:17:16;;;;;;;13.60;7.93;;;2.40;99.90;;;;;;6219395;23;20322;-79
2023/04/06 03:19:42;;;;;;;14.32;7.93;;;2.40;99.90;;;;;;6219408;23;20035;-78
2023/04/06 03:22:08;;;;;;;14.65;8.00;;;2.40;99.90;;;;;;6194280;23;20070;-77
2023/04/06 03:24:33;;;;;;;11.13;6.88;;;2.40;99.90;;;;;;6219282;23;20057;-78
2023/04/06 03:27:00;;;;;;;13.07;7.85;;;2.30;99.90;;;;;;6220332;23;20097;-78
2023/04/06 03:29:25;;;;;;;12.75;7.40;;;2.30;99.90;;;;;;6249120;22;20015;-77
2023/04/06 03:31:51;;;;;;;16.05;7.47;;;2.30;99.90;;;;;;6222148;23;20083;-77
2023/04/06 03:34:17;;;;;;;13.68;7.68;;;2.30;99.90;;;;;;6197200;23;20070;-79
2023/04/06 03:36:42;;;;;;;16.92;8.18;;;2.30;99.90;;;;;;6222802;23;20008;-78
2023/04/06 03:39:08;;;;;;;13.18;8.50;;;2.20;99.90;;;;;;6249313;23;20009;-77
2023/04/06 03:41:33;;;;;;;12.85;7.65;;;2.20;99.90;;;;;;6249369;22;20087;-76
2023/04/06 03:43:59;;;;;;;12.88;7.55;;;2.20;99.90;;;;;;6222567;23;20441;-79
2023/04/06 03:46:25;;;;;;;13.38;7.80;;;2.20;99.90;;;;;;6222639;23;20012;-77
2023/04/06 03:48:50;;;;;;;14.20;8.13;;;2.20;99.90;;;;;;6222040;23;20458;-76
2023/04/06 03:51:16;;;;;;;12.68;7.65;;;2.10;99.90;;;;;;6222459;23;20402;-77
2023/04/06 03:53:42;;;;;;;13.20;7.85;;;2.10;99.90;;;;;;6222298;23;20433;-77
2023/04/06 03:56:07;;;;;;;13.52;7.55;;;2.10;99.90;;;;;;6222652;23;20027;-78
2023/04/06 03:58:33;;;;;;;14.82;8.25;;;2.10;99.90;;;;;;6222476;23;20016;-77
2023/04/06 04:00:59;;;;;;;15.85;9.88;;;2.00;99.90;;;;;;6249288;22;20020;-77
2023/04/06 04:03:26;;;;;;;18.48;9.65;;;2.00;99.90;;;;;;6222154;23;20023;-78
2023/04/06 04:05:52;;;;;;;14.80;8.93;;;2.00;99.90;;;;;;6249477;23;20449;-78
2023/04/06 04:08:18;;;;;;;13.70;8.40;;;1.90;99.90;;;;;;6222526;23;20058;-76
2023/04/06 04:10:43;;;;;;;13.18;7.85;;;1.90;99.90;;;;;;6222862;23;20016;-78
2023/04/06 04:13:09;;;;;;;12.80;8.10;;;1.90;99.90;;;;;;6222088;23;20338;-78
2023/04/06 04:15:34;;;;;;;15.02;8.35;;;1.90;99.90;;;;;;6222183;23;20020;-77
2023/04/06 04:18:00;;;;;;;12.88;8.05;;;1.90;99.90;;;;;;6197169;23;20019;-78
2023/04/06 04:20:26;;;;;;;15.30;8.52;;;1.90;99.90;;;;;;6222161;22;20079;-77
2023/04/06 04:22:51;;;;;;;15.15;9.90;;;1.90;99.90;;;;;;6222864;23;20048;-78
2023/04/06 04:25:19;;;;;;;15.85;8.68;;;1.90;99.90;;;;;;6222186;23;20384;-77
2023/04/06 04:27:45;;;;;;;15.85;8.00;;;1.80;99.90;;;;;;6222589;23;20008;-78
2023/04/06 04:30:11;;;;;;;16.40;8.05;;;1.80;99.90;;;;;;6222355;23;20072;-78
2023/04/06 04:32:36;;;;;;;14.77;8.18;;;1.80;99.90;;;;;;6249405;23;20008;-78
2023/04/06 04:35:02;;;;;;;16.27;8.18;;;1.80;99.90;;;;;;6222273;23;20019;-77
2023/04/06 04:37:28;;;;;;;14.23;8.48;;;1.80;99.90;;;;;;6222168;23;20015;-77
2023/04/06 04:39:54;;;;;;;14.93;8.80;;;1.80;99.90;;;;;;6221942;23;20392;-78
2023/04/06 04:42:19;;;;;;;16.08;8.60;;;1.80;99.90;;;;;;6220876;23;20092;-77
2023/04/06 04:44:45;;;;;;;15.00;8.23;;;1.80;99.90;;;;;;6220664;23;20020;-77
2023/04/06 04:47:10;;;;;;;16.40;8.68;;;1.70;99.90;;;;;;6248008;23;20008;-77
2023/04/06 04:49:36;;;;;;;16.45;9.27;;;1.70;99.90;;;;;;6220843;23;20065;-77
2023/04/06 04:52:02;;;;;;;13.35;8.25;;;1.70;99.90;;;;;;6220629;23;20070;-77
2023/04/06 04:54:28;;;;;;;14.27;8.68;;;1.70;99.90;;;;;;6247725;23;20005;-78
2023/04/06 04:56:54;;;;;;;15.85;8.77;;;1.70;99.90;;;;;;6220482;23;20012;-77
2023/04/06 04:59:20;;;;;;;15.30;8.70;;;1.70;99.90;;;;;;6247026;23;20110;-76
2023/04/06 05:01:45;;;;;;;17.20;8.30;;;1.70;99.90;;;;;;6247279;22;20369;-77
2023/04/06 05:04:11;;;;;;;14.38;8.65;;;1.70;99.90;;;;;;6247551;23;20056;-77
2023/04/06 05:06:37;;;;;;;16.80;9.00;;;1.70;99.90;;;;;;6247254;23;20368;-77
2023/04/06 05:09:02;;;;;;;14.57;8.45;;;1.70;99.90;;;;;;6220638;23;20349;-78
2023/04/06 05:11:28;;;;;;;14.35;7.95;;;1.70;99.90;;;;;;6220472;23;20464;-78
2023/04/06 05:13:54;;;;;;;16.05;8.65;;;1.70;99.90;;;;;;6220609;23;20020;-78
2023/04/06 05:16:20;;;;;;;17.58;8.75;;;1.70;99.90;;;;;;6247105;23;20004;-78
2023/04/06 05:18:47;;;;;;;17.38;8.90;;;1.70;99.90;;;;;;6220223;23;20012;-78
2023/04/06 05:21:13;;;;;;;17.83;9.90;;;1.70;99.90;;;;;;6220492;23;20034;-78
2023/04/06 05:23:39;;;;;;;18.50;9.38;;;1.70;99.90;;;;;;6219968;23;20454;-77
2023/04/06 05:26:04;;;;;;;16.15;8.95;;;1.70;99.90;;;;;;6195824;23;20018;-78
2023/04/06 05:28:30;;;;;;;18.60;9.68;;;1.70;99.90;;;;;;6221231;23;20013;-77
2023/04/06 05:30:56;;;;;;;25.55;9.77;;;1.70;99.90;;;;;;6247523;22;20070;-79
2023/04/06 05:33:23;;;;;;;15.45;8.80;;;1.70;99.90;;;;;;6248504;23;20012;-79
2023/04/06 05:35:49;;;;;;;17.05;8.90;;;1.70;99.90;;;;;;6247384;23;20058;-79
2023/04/06 05:38:14;;;;;;;19.50;8.68;;;1.70;99.90;;;;;;6247264;23;20031;-78
2023/04/06 05:40:41;;;;;;;18.75;8.90;;;1.70;99.90;;;;;;6220371;23;20066;-78
2023/04/06 05:43:07;;;;;;;19.40;10.15;;;1.80;99.90;;;;;;6220241;23;20393;-77
2023/04/06 05:45:33;;;;;;;18.17;8.93;;;1.80;99.90;;;;;;6195473;23;20008;-78
2023/04/06 05:47:59;;;;;;;16.75;9.20;;;1.80;99.90;;;;;;6247296;23;20107;-78
2023/04/06 05:50:25;;;;;;;18.70;9.85;;;1.80;99.90;;;;;;6247790;22;20271;-77
2023/04/06 05:52:50;;;;;;;17.67;9.68;;;1.90;99.90;;;;;;6247225;23;20316;-79
2023/04/06 05:55:16;;;;;;;18.50;10.18;;;1.90;99.90;;;;;;6247823;23;20377;-78
2023/04/06 05:57:42;;;;;;;17.65;9.10;;;1.90;99.90;;;;;;6220641;23;20040;-79
2023/04/06 06:00:09;;;;;;;16.75;9.55;;;2.00;99.90;;;;;;6196158;23;20066;-80
2023/04/06 06:02:35;;;;;;;17.88;10.18;;;2.00;99.90;;;;;;6247261;22;20016;-79
2023/04/06 06:05:01;;;;;;;15.60;9.43;;;2.00;99.90;;;;;;6247712;23;20039;-79
2023/04/06 06:07:28;;;;;;;15.88;9.63;;;2.10;99.90;;;;;;6221066;23;20016;-79
2023/04/06 06:09:57;;;;;;;19.02;10.50;;;2.10;99.90;;;;;;6195390;23;20020;-78
2023/04/06 06:12:23;;;;;;;17.35;9.23;;;2.10;99.90;;;;;;6247027;22;20102;-78
2023/04/06 06:14:48;;;;;;;16.95;9.25;;;2.20;99.90;;;;;;6247300;23;20016;-78
2023/04/06 06:17:15;;;;;;;16.08;9.50;;;2.20;99.90;;;;;;6250848;23;20020;-75
2023/04/06 06:19:40;;;;;;;18.85;10.10;;;2.30;99.90;;;;;;6255026;23;20036;-74
2023/04/06 06:22:06;;;;;;;17.02;8.88;;;2.30;99.90;;;;;;6224226;23;20019;-75
2023/04/06 06:24:32;;;;;;;17.65;9.48;;;2.40;99.90;;;;;;6248004;23;20008;-78
2023/04/06 06:26:58;;;;;;;17.13;8.80;;;2.40;99.90;;;;;;6246537;23;20012;-77
2023/04/06 06:29:24;;;;;;;17.20;10.25;;;2.50;99.90;;;;;;6219584;23;20016;-77
2023/04/06 06:31:49;;;;;;;18.08;9.88;;;2.50;99.90;;;;;;6220559;23;20027;-76
2023/04/06 06:34:15;;;;;;;14.80;8.80;;;2.60;99.90;;;;;;6195743;23;20012;-77
2023/04/06 06:36:41;;;;;;;16.40;10.05;;;2.70;99.90;;;;;;6219696;23;20093;-79
2023/04/06 06:39:06;;;;;;;16.75;8.85;;;2.70;99.90;;;;;;6246774;23;20016;-78
2023/04/06 06:41:32;;;;;;;20.27;9.48;;;2.80;99.90;;;;;;6247747;22;20304;-77
2023/04/06 06:43:57;;;;;;;18.52;9.85;;;2.90;99.90;;;;;;6220880;23;20012;-78
2023/04/06 06:46:23;;;;;;;18.85;10.00;;;2.90;99.90;;;;;;6220543;23;20313;-78
2023/04/06 06:48:49;;;;;;;17.80;10.05;;;3.00;99.90;;;;;;6220389;23;20442;-77
2023/04/06 06:51:14;;;;;;;16.63;9.10;;;3.10;99.90;;;;;;6220164;23;20038;-79
2023/04/06 06:53:40;;;;;;;18.98;9.57;;;3.20;99.90;;;;;;6220283;23;20095;-77
2023/04/06 06:56:06;;;;;;;17.35;9.52;;;3.30;99.90;;;;;;6220387;23;20023;-77
2023/04/06 06:58:31;;;;;;;14.75;8.95;;;3.40;99.90;;;;;;6219539;23;20333;-77
2023/04/06 07:01:00;;;;;;;15.35;9.10;;;3.50;99.90;;;;;;6194528;23;20019;-78
2023/04/06 07:03:27;;;;;;;16.92;8.98;;;3.60;99.90;;;;;;6220069;23;20020;-76
2023/04/06 07:05:53;;;;;;;17.25;9.52;;;3.80;99.90;;;;;;6220466;23;20062;-77
2023/04/06 07:08:23;;;;;;;16.27;9.63;;;3.90;99.90;;;;;;6222786;23;20317;-77
2023/04/06 07:10:52;;;;;;;15.45;10.05;;;4.10;99.90;;;;;;6250454;22;20012;-78
2023/04/06 07:13:22;;;;;;;16.00;9.02;;;4.20;99.90;;;;;;6195565;23;20023;-78
2023/04/06 07:15:48;;;;;;;18.30;9.80;;;4.40;99.90;;;;;;6221298;23;20008;-78
2023/04/06 07:18:14;;;;;;;22.50;9.88;;;4.60;99.90;;;;;;6220850;23;20033;-78
2023/04/06 07:20:39;;;;;;;16.90;10.18;;;4.80;99.90;;;;;;6247215;22;20062;-77
2023/04/06 07:23:06;;;;;;;16.65;9.02;;;4.90;99.90;;;;;;6247064;23;20015;-76
2023/04/06 07:25:32;;;;;;;18.17;10.00;;;5.20;99.90;;;;;;6246726;23;20027;-77
2023/04/06 07:27:58;;;;;;;20.10;8.77;;;5.30;99.90;;;;;;6246446;23;20426;-78
2023/04/06 07:30:26;;;;;;;16.80;9.48;;;5.40;99.90;;;;;;6247010;22;20016;-78
2023/04/06 07:32:51;;;;;;;17.05;8.43;;;5.60;99.90;;;;;;6220035;23;20160;-77
2023/04/06 07:35:17;;;;;;;19.83;9.57;;;5.70;99.90;;;;;;6220194;23;20008;-78
2023/04/06 07:37:43;;;;;;;16.67;9.35;;;5.70;99.90;;;;;;6219978;23;20016;-77
2023/04/06 07:40:09;;;;;;;17.38;9.82;;;5.90;99.90;;;;;;6219860;23;20008;-76
2023/04/06 07:42:34;;;;;;;18.27;10.00;;;6.00;99.90;;;;;;6220113;23;20016;-79
2023/04/06 07:45:00;;;;;;;17.20;9.80;;;6.10;99.90;;;;;;6246936;23;20047;-77
2023/04/06 07:47:26;;;;;;;18.10;9.73;;;6.30;99.90;;;;;;6195495;23;20020;-77
2023/04/06 07:49:54;;;;;;;18.90;10.23;;;6.40;99.90;;;;;;6219570;23;20012;-77
2023/04/06 07:52:20;;;;;;;18.35;9.38;;;6.50;99.90;;;;;;6218895;23;20043;-78
2023/04/06 07:54:45;;;;;;;17.70;9.93;;;6.60;99.90;;;;;;6219776;23;20016;-77
2023/04/06 07:57:11;;;;;;;20.05;9.77;;;6.70;99.90;;;;;;6246706;23;20349;-77
2023/04/06 07:59:37;;;;;;;16.33;9.13;;;6.80;99.90;;;;;;6246589;23;20020;-78
2023/04/06 08:02:02;;;;;;;16.50;9.45;;;7.00;99.90;;;;;;6245946;22;20468;-78
2023/04/06 08:04:28;;;;;;;16.63;9.80;;;7.10;99.90;;;;;;6246894;23;20009;-77
2023/04/06 08:06:54;;;;;;;15.43;8.93;;;7.20;99.90;;;;;;6246987;23;20008;-78
2023/04/06 08:09:19;;;;;;;18.45;10.30;;;7.30;99.90;;;;;;6219900;23;20020;-77
2023/04/06 08:11:46;;;;;;;19.00;9.80;;;7.40;99.90;;;;;;6194351;23;20027;-78
2023/04/06 08:14:11;;;;;;;19.38;9.93;;;7.50;99.90;;;;;;6246541;23;20018;-79
2023/04/06 08:16:37;;;;;;;16.90;9.63;;;7.60;99.90;;;;;;6221396;23;20043;-77
2023/04/06 08:19:02;;;;;;;15.55;9.35;;;7.70;99.90;;;;;;6221558;23;20020;-78
2023/04/06 08:21:28;;;;;;;18.70;10.45;;;7.90;99.90;;;;;;6221913;23;20008;-77
2023/04/06 08:23:54;;;;;;;19.52;10.65;;;8.00;99.90;;;;;;6221599;23;20342;-78
2023/04/06 08:26:19;;;;;;;17.45;9.65;;;8.10;99.90;;;;;;6221420;23;20014;-76
2023/04/06 08:28:45;;;;;;;20.20;10.68;;;8.30;99.90;;;;;;6247967;23;20445;-77
2023/04/06 08:31:11;;;;;;;18.02;10.10;;;8.40;99.90;;;;;;6221400;23;20012;-77
2023/04/06 08:33:38;;;;;;;17.60;10.88;;;8.50;99.90;;;;;;6248280;23;20046;-76
2023/04/06 08:36:12;;;;;;;19.50;11.02;;;8.60;99.90;;;;;;6248265;23;20026;-75
2023/04/06 08:38:38;;;;;;;18.58;11.27;;;8.70;99.90;;;;;;6221514;23;20012;-77
2023/04/06 08:41:11;;;;;;;18.73;10.80;;;8.80;99.90;;;;;;6220842;23;20019;-77
2023/04/06 08:43:44;;;;;;;21.38;10.57;;;8.90;99.90;;;;;;6247625;23;20536;-76
2023/04/06 08:46:11;;;;;;;20.55;11.15;;;9.10;99.90;;;;;;6196491;23;20015;-77
2023/04/06 08:48:38;;;;;;;23.50;11.38;;;9.30;99.90;;;;;;6249072;23;20010;-77
2023/04/06 08:51:04;;;;;;;20.67;11.45;;;9.40;99.90;;;;;;6248478;22;20079;-76
2023/04/06 08:53:30;;;;;;;22.60;12.07;;;9.50;99.90;;;;;;6248186;23;20426;-76
2023/04/06 08:55:59;;;;;;;24.05;12.38;;;9.60;99.90;;;;;;6221336;23;20079;-76
2023/04/06 08:58:28;;;;;;;22.33;11.93;;;9.60;99.90;;;;;;6221182;23;20047;-77
2023/04/06 09:00:54;;;;;;;23.77;13.00;;;9.60;99.90;;;;;;6221425;23;20012;-77
2023/04/06 09:03:21;;;;;;;20.83;11.73;;;9.70;99.90;;;;;;6221331;23;20459;-77
2023/04/06 09:05:47;;;;;;;23.45;12.43;;;9.80;99.90;;;;;;6248451;23;20042;-76
2023/04/06 09:08:13;;;;;;;24.20;12.52;;;9.90;99.90;;;;;;6221715;23;20088;-77
2023/04/06 09:10:40;;;;;;;21.58;12.80;;;10.00;99.90;;;;;;6220458;23;20012;-77
2023/04/06 09:13:07;;;;;;;20.25;12.13;;;10.20;99.90;;;;;;6220879;23;20020;-78
2023/04/06 09:15:33;;;;;;;24.77;12.13;;;10.50;99.90;;;;;;6220888;23;20012;-77
2023/04/06 09:17:58;;;;;;;22.10;12.52;;;10.90;99.90;;;;;;6221795;23;20020;-77
2023/04/06 09:20:26;;;;;;;26.42;13.55;;;11.10;99.90;;;;;;6221196;22;20357;-77
2023/04/06 09:22:52;;;;;;;26.05;12.93;;;11.30;99.90;;;;;;6248108;23;20008;-78
2023/04/06 09:25:20;;;;;;;25.42;12.95;;;11.40;99.90;;;;;;6220969;23;20012;-78
2023/04/06 09:27:46;;;;;;;22.95;13.20;;;11.60;99.90;;;;;;6221458;23;20109;-77
2023/04/06 09:30:15;;;;;;;23.67;13.27;;;11.70;99.90;;;;;;6247773;23;20016;-79
2023/04/06 09:32:49;;;;;;;22.60;13.65;;;11.60;99.90;;;;;;6220963;23;20023;-76
2023/04/06 09:35:15;;;;;;;26.23;13.57;;;11.50;99.90;;;;;;6221163;23;20043;-76
2023/04/06 09:37:42;;;;;;;27.58;14.52;;;11.40;99.90;;;;;;6248193;23;20012;-76
2023/04/06 09:40:09;;;;;;;23.13;13.13;;;11.50;99.90;;;;;;6247187;23;20083;-75
2023/04/06 09:42:35;;;;;;;23.60;13.80;;;11.60;99.90;;;;;;6220919;23;20077;-77
2023/04/06 09:45:02;;;;;;;21.50;13.52;;;11.70;99.90;;;;;;6247391;23;20052;-77
2023/04/06 09:47:33;;;;;;;25.60;14.82;;;11.80;99.90;;;;;;6247454;23;20019;-77
2023/04/06 09:49:59;;;;;;;22.45;13.88;;;11.90;99.90;;;;;;6221142;23;20020;-76
2023/04/06 09:52:50;;;;;;;25.50;14.38;;;12.00;99.90;;;;;;6247884;22;20092;-77
2023/04/06 09:55:46;;;;;;;26.23;14.68;;;11.80;98.50;;;;;;6220661;23;20034;-77
2023/04/06 09:58:19;;;;;;;27.35;14.27;;;11.70;98.20;;;;;;6201072;23;20053;-78
2023/04/06 10:00:50;;;;;;;28.80;15.00;;;11.60;98.70;;;;;;6220320;23;20109;-77
2023/04/06 10:03:38;;;;;;;24.75;14.20;;;11.60;98.90;;;;;;6221214;23;20012;-78
2023/04/06 10:06:07;;;;;;;24.55;14.38;;;11.60;99.30;;;;;;6246969;23;20326;-77
2023/04/06 10:08:36;;;;;;;25.98;14.38;;;11.70;98.80;;;;;;6195988;23;20023;-77
2023/04/06 10:11:02;;;;;;;28.35;14.35;;;11.70;98.60;;;;;;6220817;23;20444;-76
2023/04/06 10:13:28;;;;;;;27.88;14.55;;;11.70;98.50;;;;;;6220276;23;20019;-76
2023/04/06 10:15:55;;;;;;;27.20;15.25;;;11.60;97.90;;;;;;6247827;23;20019;-77
2023/04/06 10:18:21;;;;;;;25.65;15.23;;;11.60;98.50;;;;;;6195571;23;20023;-76
2023/04/06 10:21:07;;;;;;;25.23;14.15;;;11.70;98.40;;;;;;6219944;23;20016;-77
2023/04/06 10:23:41;;;;;;;24.63;14.43;;;11.70;98.10;;;;;;6221701;23;20016;-78
2023/04/06 10:26:16;;;;;;;28.00;14.70;;;11.80;98.10;;;;;;6220141;23;20012;-77
2023/04/06 10:28:44;;;;;;;25.80;14.80;;;11.90;98.30;;;;;;6247654;23;20051;-77
2023/04/06 10:31:10;;;;;;;26.90;15.80;;;11.90;98.40;;;;;;6246933;22;20016;-78
2023/04/06 10:33:36;;;;;;;30.63;16.33;;;12.00;98.60;;;;;;6220461;23;20080;-77
2023/04/06 10:36:21;;;;;;;39.83;16.48;;;12.10;98.30;;;;;;6247451;23;20019;-78
2023/04/06 10:38:47;;;;;;;30.17;15.23;;;12.20;97.60;;;;;;6247270;23;20015;-78
2023/04/06 10:41:13;;;;;;;30.75;15.63;;;12.40;98.70;;;;;;6220521;23;20378;-77
2023/04/06 10:43:40;;;;;;;29.13;15.10;;;12.50;98.80;;;;;;6247207;23;20372;-77
2023/04/06 10:46:07;;;;;;;63.10;16.48;;;12.50;98.40;;;;;;6247272;23;20070;-78
2023/04/06 10:48:41;;;;;;;27.60;15.82;;;12.40;96.80;;;;;;6220164;23;20015;-77
2023/04/06 10:51:11;;;;;;;29.20;15.25;;;12.40;96.50;;;;;;6247220;22;20008;-77
2023/04/06 10:53:37;;;;;;;31.13;15.43;;;12.50;96.60;;;;;;6246698;23;20073;-77
2023/04/06 10:56:05;;;;;;;31.35;15.82;;;12.50;96.50;;;;;;6246909;23;20024;-77
2023/04/06 10:58:30;;;;;;;29.83;15.93;;;12.50;95.70;;;;;;6195609;23;20012;-78
2023/04/06 11:00:56;;;;;;;28.98;16.70;;;12.50;94.70;;;;;;6245964;22;20070;-76
2023/04/06 11:03:23;;;;;;;30.10;15.93;;;12.40;94.80;;;;;;6246824;23;20084;-78
2023/04/06 11:05:50;;;;;;;27.70;16.15;;;12.40;94.30;;;;;;6220255;23;20429;-76
2023/04/06 11:08:33;;;;;;;28.20;14.98;;;12.40;93.90;;;;;;6195006;23;20315;-78
2023/04/06 11:11:17;;;;;;;32.35;14.52;;;12.50;93.50;;;;;;6219905;23;20345;-77
2023/04/06 11:13:50;;;;;;;31.17;16.05;;;12.50;93.30;;;;;;6246625;23;20449;-77
2023/04/06 11:16:17;;;;;;;35.45;16.55;;;12.60;94.00;;;;;;6220392;23;20020;-76
2023/04/06 11:18:56;;;;;;;32.40;14.93;;;12.60;93.50;;;;;;6248339;23;20318;-77
2023/04/06 11:21:47;;;;;;;30.33;15.40;;;12.60;93.60;;;;;;6246076;22;20468;-76
2023/04/06 11:24:21;;;;;;;28.83;16.08;;;12.60;93.70;;;;;;6246926;23;20444;-76
2023/04/06 11:26:58;;;;;;;25.63;15.73;;;12.50;93.30;;;;;;6219169;23;20081;-78
2023/04/06 11:29:29;;;;;;;27.50;14.95;;;12.60;93.20;;;;;;6219178;23;20008;-77
2023/04/06 11:32:03;;;;;;;24.70;15.23;;;12.50;92.80;;;;;;6194425;23;20024;-77
2023/04/06 11:34:30;;;;;;;29.58;15.35;;;12.40;93.10;;;;;;6219522;23;20085;-77
2023/04/06 11:37:06;;;;;;;28.77;16.23;;;12.40;93.50;;;;;;6246789;23;20016;-76
2023/04/06 11:39:48;;;;;;;29.63;16.05;;;12.40;91.60;;;;;;6247051;23;20012;-78
2023/04/06 11:42:22;;;;;;;33.15;15.80;;;12.40;90.80;;;;;;6247076;22;20009;-79
2023/04/06 11:44:50;;;;;;;31.33;16.70;;;12.50;90.20;;;;;;6219815;23;20039;-77
2023/04/06 11:47:16;;;;;;;31.20;16.33;;;12.50;90.40;;;;;;6219942;23;20426;-77
2023/04/06 11:49:47;;;;;;;32.83;15.50;;;12.60;90.90;;;;;;6220031;23;20012;-76
2023/04/06 11:52:18;;;;;;;26.77;14.88;;;12.50;90.30;;;;;;6222237;23;20048;-75
2023/04/06 11:54:44;;;;;;;27.02;15.40;;;12.50;89.40;;;;;;6197244;23;20407;-74
2023/04/06 11:57:10;;;;;;;29.83;14.88;;;12.50;90.60;;;;;;6248771;23;20008;-77
2023/04/06 11:59:36;;;;;;;29.25;15.43;;;12.60;91.10;;;;;;6221181;23;20023;-78
2023/04/06 12:02:03;;;;;;;33.65;15.82;;;12.70;91.00;;;;;;6221177;23;20012;-76
2023/04/06 12:04:29;;;;;;;27.83;15.10;;;12.60;90.80;;;;;;6221607;23;20012;-77
2023/04/06 12:06:55;;;;;;;27.67;14.85;;;12.60;90.60;;;;;;6221976;23;20015;-77
2023/04/06 12:09:21;;;;;;;30.40;14.90;;;12.60;90.80;;;;;;6248711;23;20040;-77
2023/04/06 12:11:47;;;;;;;26.77;14.98;;;12.60;91.10;;;;;;6221873;23;20023;-77
2023/04/06 12:14:13;;;;;;;28.80;15.77;;;12.60;90.80;;;;;;6248772;23;20008;-77
2023/04/06 12:16:39;;;;;;;28.42;15.48;;;12.50;90.80;;;;;;6248468;23;20015;-77
2023/04/06 12:19:05;;;;;;;27.30;14.48;;;12.50;91.10;;;;;;6221220;23;20091;-77
2023/04/06 12:21:31;;;;;;;29.52;16.27;;;12.40;91.40;;;;;;6221515;23;20012;-77
2023/04/06 12:23:58;;;;;;;27.08;14.70;;;12.40;91.50;;;;;;6221804;23;20012;-77
2023/04/06 12:26:24;;;;;;;30.42;15.15;;;12.40;91.50;;;;;;6249039;23;20012;-76
2023/04/06 12:28:50;;;;;;;29.83;15.50;;;12.40;91.80;;;;;;6248653;23;20008;-75
2023/04/06 12:31:21;;;;;;;26.52;12.93;;;12.40;92.00;;;;;;6221362;23;20092;-77
2023/04/06 12:33:48;;;;;;;24.80;12.13;;;12.30;91.80;;;;;;6221633;23;20434;-76
2023/04/06 12:36:19;;;;;;;25.02;13.75;;;12.20;91.70;;;;;;6221331;23;20000;-78
2023/04/06 12:38:48;;;;;;;29.25;13.75;;;12.20;92.00;;;;;;6248339;23;20063;-77
2023/04/06 12:41:15;;;;;;;24.25;12.65;;;12.30;92.70;;;;;;6222820;23;20004;-76
2023/04/06 12:43:45;;;;;;;23.83;12.60;;;12.20;92.70;;;;;;6196355;23;20009;-76
2023/04/06 12:46:11;;;;;;;27.30;12.10;;;12.20;92.60;;;;;;6221244;23;20457;-77
2023/04/06 12:48:37;;;;;;;19.95;10.27;;;12.20;92.40;;;;;;6247593;23;20087;-77
2023/04/06 12:51:05;;;;;;;23.52;11.30;;;12.10;92.70;;;;;;6221310;23;20109;-78
2023/04/06 12:53:31;;;;;;;22.08;12.25;;;12.10;93.00;;;;;;6196075;23;20337;-77
2023/04/06 12:55:58;;;;;;;20.95;12.13;;;12.00;93.30;;;;;;6248411;23;20330;-77
2023/04/06 12:58:28;;;;;;;22.17;10.82;;;12.10;93.90;;;;;;6222490;23;20066;-78
2023/04/06 13:00:54;;;;;;;26.67;10.18;;;12.10;94.40;;;;;;6247593;22;20510;-76
2023/04/06 13:03:21;;;;;;;30.58;10.55;;;12.00;94.90;;;;;;6220909;23;20058;-76
2023/04/06 13:05:48;;;;;;;30.88;9.88;;;11.90;95.60;;;;;;6221568;23;20008;-77
2023/04/06 13:08:14;;;;;;;22.73;11.00;;;11.80;96.90;;;;;;6248032;23;20341;-76
2023/04/06 13:10:44;;;;;;;20.35;8.48;;;11.90;99.10;;;;;;6247782;22;20455;-75
2023/04/06 13:13:10;;;;;;;23.75;10.25;;;11.80;99.90;;;;;;6221129;23;20016;-76
2023/04/06 13:15:36;;;;;;;24.02;8.52;;;11.70;99.90;;;;;;6220401;23;20016;-76
2023/04/06 13:18:02;;;;;;;14.30;8.25;;;11.50;99.90;;;;;;6248457;23;20035;-76
2023/04/06 13:20:28;;;;;;;14.45;8.98;;;11.30;99.90;;;;;;6220712;22;20019;-76
2023/04/06 13:22:54;;;;;;;17.10;9.98;;;11.20;99.90;;;;;;6247566;23;20008;-76
2023/04/06 13:25:20;;;;;;;16.95;10.15;;;11.20;99.90;;;;;;6219889;23;20008;-76
2023/04/06 13:27:47;;;;;;;15.40;9.18;;;11.10;99.90;;;;;;6221224;23;20429;-77
2023/04/06 13:30:13;;;;;;;15.70;9.07;;;11.00;99.90;;;;;;6222138;23;20020;-76
2023/04/06 13:32:39;;;;;;;15.32;9.10;;;11.10;99.90;;;;;;6220612;23;20016;-76
2023/04/06 13:35:06;;;;;;;18.65;10.15;;;11.00;99.90;;;;;;6220619;23;20061;-75
2023/04/06 13:37:32;;;;;;;18.73;9.75;;;11.00;99.90;;;;;;6221457;23;20434;-75
2023/04/06 13:39:57;;;;;;;17.20;8.98;;;10.90;99.90;;;;;;6247489;23;20136;-76
2023/04/06 13:42:23;;;;;;;17.63;10.02;;;10.90;99.90;;;;;;6220718;23;20019;-76
2023/04/06 13:44:50;;;;;;;19.65;10.88;;;10.80;99.90;;;;;;6220927;23;20012;-76
2023/04/06 13:47:16;;;;;;;19.25;11.07;;;10.70;99.90;;;;;;6220884;23;20012;-74
2023/04/06 13:49:42;;;;;;;19.85;11.13;;;10.50;99.90;;;;;;6220671;23;20088;-77
2023/04/06 13:52:09;;;;;;;21.10;12.10;;;10.40;99.90;;;;;;6220616;23;20082;-77
2023/04/06 13:54:35;;;;;;;17.88;11.32;;;10.40;99.90;;;;;;6220869;23;20323;-76
2023/04/06 13:57:01;;;;;;;19.33;11.82;;;10.30;99.90;;;;;;6220645;23;20027;-76
2023/04/06 13:59:32;;;;;;;22.60;12.25;;;10.20;99.90;;;;;;6195373;23;20102;-76
2023/04/06 14:01:58;;;;;;;21.17;12.07;;;10.20;99.90;;;;;;6195199;23;20040;-77
2023/04/06 14:04:23;;;;;;;25.17;13.63;;;10.20;99.90;;;;;;6247315;23;20008;-76
2023/04/06 14:06:49;;;;;;;22.50;12.68;;;10.10;99.90;;;;;;6220023;23;20056;-76
2023/04/06 14:09:15;;;;;;;26.05;14.15;;;10.10;99.90;;;;;;6248039;23;20504;-77
2023/04/06 14:11:41;;;;;;;23.58;14.05;;;10.10;99.90;;;;;;6220566;23;20455;-75
2023/04/06 14:14:06;;;;;;;22.42;13.23;;;10.00;99.90;;;;;;6247731;23;20020;-76
2023/04/06 14:16:32;;;;;;;26.15;14.18;;;10.00;99.90;;;;;;6247655;23;20086;-77
2023/04/06 14:18:58;;;;;;;22.15;13.23;;;10.00;99.90;;;;;;6220533;23;20039;-76
2023/04/06 14:21:24;;;;;;;25.95;14.35;;;9.90;99.90;;;;;;6220312;23;20019;-75
2023/04/06 14:23:50;;;;;;;22.98;13.27;;;9.90;99.90;;;;;;6220448;23;20070;-76
2023/04/06 14:26:16;;;;;;;23.75;14.18;;;9.90;99.90;;;;;;6220505;23;20471;-76
2023/04/06 14:28:42;;;;;;;25.70;14.07;;;9.80;99.90;;;;;;6220686;23;20043;-77
2023/04/06 14:31:15;;;;;;;22.30;13.48;;;9.80;99.90;;;;;;6247580;22;20009;-76
2023/04/06 14:33:42;;;;;;;23.85;15.25;;;9.80;99.90;;;;;;6220989;23;20080;-76
2023/04/06 14:36:08;;;;;;;28.23;15.52;;;9.70;99.90;;;;;;6246968;23;20008;-76
2023/04/06 14:38:34;;;;;;;25.60;14.55;;;9.60;99.90;;;;;;6247440;23;20083;-77
2023/04/06 14:41:00;;;;;;;26.08;15.88;;;9.50;99.90;;;;;;6246691;22;20484;-77
2023/04/06 14:43:26;;;;;;;28.27;17.10;;;9.40;99.90;;;;;;6220167;23;20012;-76
2023/04/06 14:45:52;;;;;;;28.60;16.52;;;9.40;99.90;;;;;;6219947;23;20066;-77
2023/04/06 14:48:18;;;;;;;28.23;17.15;;;9.30;99.90;;;;;;6247060;23;20015;-76
2023/04/06 14:50:54;;;;;;;26.73;16.67;;;9.20;99.90;;;;;;6246953;22;20019;-76
2023/04/06 14:53:21;;;;;;;27.13;15.77;;;9.20;99.90;;;;;;6246889;23;20437;-76
2023/04/06 14:55:47;;;;;;;27.88;17.20;;;9.10;99.90;;;;;;6246768;23;20015;-76
2023/04/06 14:58:12;;;;;;;27.67;17.05;;;9.10;99.90;;;;;;6219439;23;20013;-77
2023/04/06 15:00:38;;;;;;;29.92;18.13;;;9.00;99.90;;;;;;6246707;22;20333;-76
2023/04/06 15:03:04;;;;;;;27.40;17.63;;;9.00;99.90;;;;;;6220315;23;20069;-77
2023/04/06 15:05:30;;;;;;;28.88;17.50;;;8.90;99.90;;;;;;6247273;23;20008;-77
2023/04/06 15:07:56;;;;;;;29.52;17.88;;;8.90;99.90;;;;;;6220110;23;20016;-76
2023/04/06 15:10:22;;;;;;;29.83;17.67;;;8.90;99.90;;;;;;6195087;22;20023;-76
2023/04/06 15:12:47;;;;;;;28.52;17.55;;;8.90;99.90;;;;;;6219863;23;20016;-76
2023/04/06 15:15:13;;;;;;;27.65;16.15;;;8.90;99.90;;;;;;6220294;23;20080;-77
2023/04/06 15:17:39;;;;;;;31.20;17.65;;;8.80;99.90;;;;;;6219846;23;20051;-75
2023/04/06 15:20:05;;;;;;;32.25;18.15;;;8.80;99.90;;;;;;6220460;23;20434;-75
2023/04/06 15:22:31;;;;;;;31.00;18.27;;;8.80;99.90;;;;;;6246022;22;20008;-75
2023/04/06 15:24:57;;;;;;;31.67;18.65;;;8.80;99.90;;;;;;6219495;23;20044;-76
2023/04/06 15:27:22;;;;;;;29.77;16.13;;;8.70;99.90;;;;;;6219782;23;20062;-76
2023/04/06 15:29:48;;;;;;;29.10;15.63;;;8.70;99.90;;;;;;6220634;23;20438;-76
2023/04/06 15:32:13;;;;;;;27.65;15.30;;;8.70;99.90;;;;;;6220159;23;20016;-78
2023/04/06 15:34:39;;;;;;;22.88;13.32;;;8.70;99.90;;;;;;6219678;23;20020;-77
2023/04/06 15:37:05;;;;;;;19.77;11.43;;;8.70;99.90;;;;;;6219801;23;20023;-76